createdAt,value
2022-12-01T00:02:06.492Z,5.20
2022-12-01T00:05:48.283Z,5.20
2022-12-01T00:09:48.866Z,5.10
2022-12-01T00:13:30.907Z,5.10
2022-12-01T00:17:12.743Z,5.10
2022-12-01T00:20:56.261Z,5.00
2022-12-01T00:24:38.004Z,5.00
2022-12-01T00:28:19.775Z,5.00
2022-12-01T00:32:01.543Z,4.90
2022-12-01T00:35:43.298Z,4.80
2022-12-01T00:39:25.053Z,4.80
2022-12-01T00:43:06.776Z,4.80
2022-12-01T00:46:48.553Z,4.80
2022-12-01T00:50:30.796Z,4.80
2022-12-01T00:54:12.540Z,4.80
2022-12-01T00:57:54.477Z,4.70
2022-12-01T01:01:36.238Z,4.70
2022-12-01T01:05:18.098Z,4.70
2022-12-01T01:08:59.922Z,4.60
2022-12-01T01:12:42.030Z,4.50
2022-12-01T01:16:23.890Z,4.50
2022-12-01T01:20:06.893Z,4.50
2022-12-01T01:23:50.218Z,4.60
2022-12-01T01:27:31.955Z,4.60
2022-12-01T01:31:17.087Z,4.70
2022-12-01T01:34:58.901Z,4.70
2022-12-01T01:38:40.791Z,4.70
2022-12-01T01:42:22.575Z,4.70
2022-12-01T01:46:06.100Z,4.70
2022-12-01T01:49:48.951Z,4.80
2022-12-01T01:53:31.444Z,4.80
2022-12-01T01:57:16.838Z,4.80
2022-12-01T02:00:58.706Z,4.80
2022-12-01T02:04:51.322Z,4.80
2022-12-01T02:08:35.775Z,4.80
2022-12-01T02:12:39.561Z,4.80
2022-12-01T02:16:43.196Z,4.80
2022-12-01T02:20:57.434Z,4.80
2022-12-01T02:24:48.012Z,4.80
2022-12-01T02:28:37.073Z,4.80
2022-12-01T02:32:49.730Z,4.80
2022-12-01T02:36:36.838Z,4.80
2022-12-01T02:40:41.698Z,4.80
2022-12-01T02:44:32.692Z,4.80
2022-12-01T02:48:27.476Z,4.80
2022-12-01T02:52:11.657Z,4.80
2022-12-01T02:55:56.007Z,4.80
2022-12-01T02:59:37.886Z,4.70
2022-12-01T03:03:47.343Z,4.70
2022-12-01T03:07:52.855Z,4.70
2022-12-01T03:11:56.982Z,4.70
2022-12-01T03:16:09.335Z,4.70
2022-12-01T03:20:04.866Z,4.70
2022-12-01T03:23:51.896Z,4.70
2022-12-01T03:27:37.675Z,4.70
2022-12-01T03:31:24.130Z,4.80
2022-12-01T03:35:21.418Z,4.70
2022-12-01T03:39:08.754Z,4.70
2022-12-01T03:42:56.835Z,4.70
2022-12-01T03:46:45.407Z,4.70
2022-12-01T03:50:35.497Z,4.70
2022-12-01T03:54:23.218Z,4.70
2022-12-01T03:58:13.659Z,4.70
2022-12-01T04:01:55.529Z,4.70
2022-12-01T04:05:37.390Z,4.70
2022-12-01T04:09:19.253Z,4.60
2022-12-01T04:13:01.206Z,4.60
2022-12-01T04:16:43.012Z,4.60
2022-12-01T04:20:24.783Z,4.60
2022-12-01T04:24:07.050Z,4.60
2022-12-01T04:27:49.003Z,4.60
2022-12-01T04:31:31.334Z,4.60
2022-12-01T04:35:13.153Z,4.60
2022-12-01T04:38:54.930Z,4.60
2022-12-01T04:42:36.729Z,4.60
2022-12-01T04:46:18.511Z,4.60
2022-12-01T04:50:00.567Z,4.60
2022-12-01T04:53:42.386Z,4.60
2022-12-01T04:57:24.114Z,4.60
2022-12-01T05:01:08.533Z,4.60
2022-12-01T05:04:50.431Z,4.60
2022-12-01T05:08:32.826Z,4.60
2022-12-01T05:12:17.083Z,4.60
2022-12-01T05:16:09.324Z,4.70
2022-12-01T05:20:09.669Z,4.70
2022-12-01T05:23:51.397Z,4.70
2022-12-01T05:27:33.114Z,4.60
2022-12-01T05:31:15.150Z,4.70
2022-12-01T05:34:56.939Z,4.70
2022-12-01T05:38:38.671Z,4.70
2022-12-01T05:42:20.402Z,4.70
2022-12-01T05:46:02.600Z,4.70
2022-12-01T05:49:44.340Z,4.70
2022-12-01T05:53:26.101Z,4.60
2022-12-01T05:57:07.925Z,4.60
2022-12-01T06:00:49.671Z,4.60
2022-12-01T06:04:31.421Z,4.70
2022-12-01T06:08:13.266Z,4.60
2022-12-01T06:11:55.011Z,4.60
2022-12-01T06:15:37.395Z,4.60
2022-12-01T06:19:19.131Z,4.60
2022-12-01T06:23:00.988Z,4.60
2022-12-01T06:26:42.823Z,4.60
2022-12-01T06:30:25.385Z,4.60
2022-12-01T06:34:07.283Z,4.60
2022-12-01T06:37:49.439Z,4.60
2022-12-01T06:41:31.791Z,4.60
2022-12-01T06:45:13.694Z,4.60
2022-12-01T06:48:55.435Z,4.60
2022-12-01T06:52:37.883Z,4.60
2022-12-01T06:56:19.701Z,4.60
2022-12-01T07:00:02.306Z,4.60
2022-12-01T07:03:51.219Z,4.60
2022-12-01T07:07:37.124Z,4.60
2022-12-01T07:11:19.190Z,4.60
2022-12-01T07:15:01.937Z,4.60
2022-12-01T07:18:45.143Z,4.60
2022-12-01T07:22:32.591Z,4.60
2022-12-01T07:26:17.453Z,4.60
2022-12-01T07:29:59.386Z,4.60
2022-12-01T07:33:41.484Z,4.60
2022-12-01T07:37:23.364Z,4.60
2022-12-01T07:41:16.646Z,4.60
2022-12-01T07:44:58.449Z,4.70
2022-12-01T07:48:40.739Z,4.60
2022-12-01T07:52:22.487Z,4.70
2022-12-01T07:56:08.583Z,4.70
2022-12-01T07:59:51.000Z,4.70
2022-12-01T08:03:32.949Z,4.70
2022-12-01T08:07:14.692Z,4.60
2022-12-01T08:11:01.635Z,4.70
2022-12-01T08:14:43.395Z,4.70
2022-12-01T08:18:25.277Z,4.70
2022-12-01T08:22:07.122Z,4.70
2022-12-01T08:25:48.918Z,4.80
2022-12-01T08:29:30.752Z,4.80
2022-12-01T08:33:12.650Z,4.80
2022-12-01T08:36:54.411Z,4.80
2022-12-01T08:40:36.510Z,4.80
2022-12-01T08:44:18.347Z,4.90
2022-12-01T08:48:00.167Z,4.90
2022-12-01T08:51:41.944Z,4.90
2022-12-01T08:55:23.683Z,4.90
2022-12-01T08:59:06.063Z,5.00
2022-12-01T09:02:48.844Z,5.00
2022-12-01T09:06:32.617Z,5.10
2022-12-01T09:10:14.502Z,5.10
2022-12-01T09:13:59.579Z,5.10
2022-12-01T09:17:41.288Z,5.10
2022-12-01T09:21:26.780Z,5.10
2022-12-01T09:25:14.646Z,5.10
2022-12-01T09:29:19.119Z,5.20
2022-12-01T09:33:00.985Z,5.20
2022-12-01T09:36:43.351Z,5.20
2022-12-01T09:40:32.510Z,5.20
2022-12-01T09:44:25.462Z,5.20
2022-12-01T09:48:10.539Z,5.20
2022-12-01T09:51:54.483Z,5.30
2022-12-01T09:55:36.560Z,5.30
2022-12-01T09:59:24.637Z,5.30
2022-12-01T10:03:09.746Z,5.40
2022-12-01T10:07:05.124Z,5.40
2022-12-01T10:10:49.057Z,5.50
2022-12-01T10:14:34.061Z,5.50
2022-12-01T10:18:54.642Z,5.60
2022-12-01T10:22:50.716Z,5.60
2022-12-01T10:26:41.798Z,5.60
2022-12-01T10:30:24.285Z,5.60
2022-12-01T10:34:19.899Z,5.70
2022-12-01T10:38:05.278Z,5.70
2022-12-01T10:41:48.960Z,5.70
2022-12-01T10:45:41.941Z,5.80
2022-12-01T10:49:39.287Z,5.90
2022-12-01T10:53:31.141Z,5.90
2022-12-01T10:57:17.735Z,6.00
2022-12-01T11:01:04.636Z,6.00
2022-12-01T11:05:00.075Z,6.00
2022-12-01T11:09:05.390Z,6.00
2022-12-01T11:13:02.742Z,6.00
2022-12-01T11:16:46.987Z,6.10
2022-12-01T11:20:36.521Z,6.20
2022-12-01T11:24:42.294Z,6.20
2022-12-01T11:28:24.307Z,6.20
2022-12-01T11:32:22.439Z,6.20
2022-12-01T11:36:04.482Z,6.20
2022-12-01T11:39:48.527Z,6.30
2022-12-01T11:43:36.430Z,6.30
2022-12-01T11:47:24.067Z,6.30
2022-12-01T11:51:37.770Z,6.40
2022-12-01T11:55:25.809Z,6.40
2022-12-01T11:59:13.821Z,6.40
2022-12-01T12:03:07.113Z,6.50
2022-12-01T12:07:07.606Z,6.50
2022-12-01T12:11:01.610Z,6.50
2022-12-01T12:15:17.861Z,6.60
2022-12-01T12:19:34.362Z,6.70
2022-12-01T12:24:12.146Z,6.70
2022-12-01T12:28:02.696Z,6.70
2022-12-01T12:31:57.714Z,6.80
2022-12-01T12:36:09.778Z,6.80
2022-12-01T12:40:16.473Z,6.90
2022-12-01T12:44:38.530Z,6.90
2022-12-01T12:48:35.983Z,6.90
2022-12-01T12:52:25.753Z,7.00
2022-12-01T12:56:12.183Z,7.10
2022-12-01T13:00:07.555Z,7.20
2022-12-01T13:04:00.723Z,7.20
2022-12-01T13:07:51.419Z,7.20
2022-12-01T13:11:41.671Z,7.20
2022-12-01T13:15:23.791Z,7.10
2022-12-01T13:19:27.662Z,7.20
2022-12-01T13:23:14.928Z,7.20
2022-12-01T13:26:59.658Z,7.20
2022-12-01T13:30:41.454Z,7.10
2022-12-01T13:34:43.523Z,7.20
2022-12-01T13:38:31.879Z,7.20
2022-12-01T13:42:25.596Z,7.20
2022-12-01T13:46:23.500Z,7.30
2022-12-01T13:50:53.349Z,7.30
2022-12-01T13:54:37.298Z,7.30
2022-12-01T13:58:26.501Z,7.30
2022-12-01T14:02:22.028Z,7.30
2022-12-01T14:06:10.645Z,7.30
2022-12-01T14:09:58.652Z,7.30
2022-12-01T14:14:09.142Z,7.20
2022-12-01T14:18:29.539Z,7.20
2022-12-01T14:22:29.789Z,7.20
2022-12-01T14:26:18.919Z,7.20
2022-12-01T14:30:39.340Z,7.20
2022-12-01T14:34:26.733Z,7.10
2022-12-01T14:38:10.658Z,7.10
2022-12-01T14:41:58.733Z,7.10
2022-12-01T14:46:03.015Z,7.00
2022-12-01T14:49:53.661Z,7.00
2022-12-01T14:53:40.767Z,6.90
2022-12-01T14:57:38.569Z,6.90
2022-12-01T15:01:22.720Z,6.90
2022-12-01T15:05:16.243Z,6.80
2022-12-01T15:09:33.414Z,6.80
2022-12-01T15:13:24.828Z,6.70
2022-12-01T15:17:08.978Z,6.70
2022-12-01T15:20:58.771Z,6.70
2022-12-01T15:24:41.317Z,6.70
2022-12-01T15:28:34.065Z,6.70
2022-12-01T15:32:18.689Z,6.70
2022-12-01T15:36:01.380Z,6.60
2022-12-01T15:40:54.202Z,6.50
2022-12-01T15:44:20.182Z,6.50
2022-12-01T15:48:14.341Z,6.50
2022-12-01T15:52:08.669Z,6.50
2022-12-01T15:55:58.362Z,6.40
2022-12-01T15:59:44.339Z,6.40
2022-12-01T16:03:27.103Z,6.40
2022-12-01T16:07:10.868Z,6.30
2022-12-01T16:11:15.949Z,6.30
2022-12-01T16:15:00.655Z,6.30
2022-12-01T16:18:50.974Z,6.20
2022-12-01T16:22:32.796Z,6.20
2022-12-01T16:26:14.760Z,6.20
2022-12-01T16:30:02.663Z,6.10
2022-12-01T16:33:44.582Z,6.10
2022-12-01T16:37:27.433Z,6.00
2022-12-01T16:41:18.181Z,6.00
2022-12-01T16:45:00.082Z,6.00
2022-12-01T16:48:41.799Z,5.90
2022-12-01T16:56:25.751Z,5.80
2022-12-01T17:00:09.276Z,5.80
2022-12-01T17:03:51.028Z,5.80
2022-12-01T17:07:32.914Z,5.70
2022-12-01T17:11:14.942Z,5.70
2022-12-01T17:14:56.808Z,5.70
2022-12-01T17:18:39.463Z,5.70
2022-12-01T17:22:21.807Z,5.60
2022-12-01T17:26:11.155Z,5.60
2022-12-01T17:29:53.226Z,5.60
2022-12-01T17:33:35.794Z,5.60
2022-12-01T17:37:21.207Z,5.50
2022-12-01T17:41:14.323Z,5.50
2022-12-01T17:44:56.089Z,5.40
2022-12-01T17:48:45.535Z,5.40
2022-12-01T17:52:28.658Z,5.40
2022-12-01T17:56:12.965Z,5.40
2022-12-01T17:59:54.756Z,5.40
2022-12-01T18:03:36.533Z,5.40
2022-12-01T18:07:18.431Z,5.40
2022-12-01T18:11:08.101Z,5.40
2022-12-01T18:14:50.047Z,5.40
2022-12-01T18:18:32.075Z,5.40
2022-12-01T18:22:13.831Z,5.40
2022-12-01T18:25:55.613Z,5.40
2022-12-01T18:29:37.586Z,5.30
2022-12-01T18:33:21.044Z,5.40
2022-12-01T18:37:05.877Z,5.40
2022-12-01T18:40:47.811Z,5.30
2022-12-01T18:44:29.570Z,5.30
2022-12-01T18:48:11.365Z,5.30
2022-12-01T18:51:53.199Z,5.30
2022-12-01T18:55:38.652Z,5.30
2022-12-01T18:59:20.603Z,5.30
2022-12-01T19:03:08.365Z,5.30
2022-12-01T19:06:50.179Z,5.30
2022-12-01T19:10:33.416Z,5.20
2022-12-01T19:14:17.986Z,5.30
2022-12-01T19:17:59.731Z,5.30
2022-12-01T19:21:41.576Z,5.30
2022-12-01T19:25:23.366Z,5.20
2022-12-01T19:29:05.382Z,5.20
2022-12-01T19:32:47.151Z,5.20
2022-12-01T19:36:29.002Z,5.20
2022-12-01T19:40:11.290Z,5.20
2022-12-01T19:43:53.878Z,5.10
2022-12-01T19:47:36.572Z,5.20
2022-12-01T19:51:20.335Z,5.10
2022-12-01T19:55:02.317Z,5.10
2022-12-01T19:58:44.117Z,5.10
2022-12-01T20:02:29.201Z,5.10
2022-12-01T20:06:15.197Z,5.10
2022-12-01T20:09:56.967Z,5.10
2022-12-01T20:13:41.135Z,5.10
2022-12-01T20:17:22.881Z,5.10
2022-12-01T20:21:23.344Z,5.10
2022-12-01T20:25:05.921Z,5.00
2022-12-01T20:28:50.040Z,5.00
2022-12-01T20:32:31.884Z,5.00
2022-12-01T20:36:14.537Z,5.00
2022-12-01T20:39:56.336Z,5.00
2022-12-01T20:43:38.710Z,5.00
2022-12-01T20:47:21.213Z,5.00
2022-12-01T20:51:04.709Z,5.00
2022-12-01T20:54:46.496Z,5.00
2022-12-01T20:58:30.203Z,5.00
2022-12-01T21:02:13.803Z,5.00
2022-12-01T21:05:59.645Z,5.00
2022-12-01T21:09:41.409Z,5.00
2022-12-01T21:13:42.194Z,5.00
2022-12-01T21:17:48.349Z,5.00
2022-12-01T21:21:32.141Z,5.00
2022-12-01T21:25:18.990Z,4.90
2022-12-01T21:29:01.111Z,5.00
2022-12-01T21:32:44.614Z,4.90
2022-12-01T21:36:30.678Z,4.90
2022-12-01T21:40:21.969Z,4.90
2022-12-01T21:44:13.295Z,4.90
2022-12-01T21:48:14.215Z,4.90
2022-12-01T21:51:55.968Z,4.90
2022-12-01T21:55:38.981Z,4.90
2022-12-01T21:59:23.372Z,4.80
2022-12-01T22:03:08.174Z,4.80
2022-12-01T22:06:56.458Z,4.80
2022-12-01T22:10:59.956Z,4.80
2022-12-01T22:14:41.746Z,4.70
2022-12-01T22:18:32.461Z,4.70
2022-12-01T22:22:26.362Z,4.70
2022-12-01T22:26:16.572Z,4.70
2022-12-01T22:30:10.827Z,4.70
2022-12-01T22:34:03.247Z,4.70
2022-12-01T22:37:49.932Z,4.70
2022-12-01T22:41:32.607Z,4.70
2022-12-01T22:45:22.942Z,4.70
2022-12-01T22:49:10.545Z,4.70
2022-12-01T22:52:53.852Z,4.60
2022-12-01T22:56:37.827Z,4.60
2022-12-01T23:00:23.028Z,4.60
2022-12-01T23:04:29.321Z,4.60
2022-12-01T23:08:16.199Z,4.50
2022-12-01T23:12:12.202Z,4.50
2022-12-01T23:15:54.334Z,4.40
2022-12-01T23:19:36.194Z,4.40
2022-12-01T23:23:25.539Z,4.40
2022-12-01T23:27:07.685Z,4.30
2022-12-01T23:30:53.210Z,4.30
2022-12-01T23:34:35.348Z,4.30
2022-12-01T23:38:20.639Z,4.20
2022-12-01T23:42:03.490Z,4.20
2022-12-01T23:45:46.779Z,4.20
2022-12-01T23:49:35.370Z,4.20
2022-12-01T23:53:29.741Z,4.20
2022-12-01T23:57:21.025Z,4.10
